Jerumenha, Brazil
Current Conditions -  °F | °C
As of 11:00 PM on Monday 24 Nov 2014 (Local Time) from SBTE Reporting Station
Clear Clear  
Wind Chill: 86°   Ceiling: Unl
Heat Index: 89°   Visibility: 6mi
Dew Point: 68°   Wind: 7mph
Humidity: 55%   Direction: 20°NNE
Pressure: 29.83"   Gusts: NA
Location:  7.09°S, 43.51°W
Report Text: SBTE 250200Z 02006KT CAVOK 30/20 Q1010
Loading
Personal Weather Stations






























Interactive Weather Map New forecast layout! Learn more

10-Day Weather Forecast

Advertisements
Track Severe Weather on mobile